PAVD METAR and TAF weather

Enter ICAO airport designator
Station Type Date Time Source
PAVD METAR 2019/04/25 11:56 UTC NOAA

PAVD 251156Z AUTO 05003KT 10SM FEW095 03/M08 A3013 RMK AO2 SLP227 T00331083 10044 20017 58005


Station Type Date Time Source
PAVD Decoded METAR 2019/04/25 11:56 UTC NOAA

Valdez 2, AK, United States (PAVD) 61-08N 146-16W
Apr 25, 2019 - 07:56 AM EDT / 2019.04.25 1156 UTC
Wind: from the NE (050 degrees) at 3 MPH (3 KT):0
Visibility: 10 mile(s):0
Sky conditions: mostly clear
Temperature: 37.9 F (3.3 C)
Dew Point: 17.1 F (-8.3 C)
Relative Humidity: 42%
Pressure (altimeter): 30.13 in. Hg (1020 hPa)
Pressure tendency: 0.01 inches (0.5 hPa) lower than three hours ago
ob: PAVD 251156Z AUTO 05003KT 10SM FEW095 03/M08 A3013 RMK AO2 SLP227 T00331083 10044 20017 58005
cycle: 12

Station Type Date Time Source
PAVD TAF 2019/04/25 12:30 UTC NOAA

TAF PAVD 251127Z 2512/2612 VRB04KT P6SM VCSH SCT045 BKN070
FM260900 05010G18KT P6SM SCT150
AMD LTD TO CLD VIS AND WIND

Example: see airport list